Time;durP1;ratioP1;P1;durP2;ratioP2;P2;SDS_P1;SDS_P2;PMS_P1;PMS_P2;Temp;Humidity;BMP_temperature;BMP_pressure;BME280_temperature;BME280_humidity;BME280_pressure;Samples;Min_cycle;Max_cycle;Signal;HPM_P1;HPM_P2
2023/02/15 00:01:18;;;;;;;33.10;18.50;;;;;;;4.16;84.17;101926.16;131369;1253;105756;-74
2023/02/15 00:04:45;;;;;;;37.30;20.20;;;;;;;4.06;84.26;101926.93;131358;1261;107519;-75
2023/02/15 00:07:51;;;;;;;26.90;16.80;;;;;;;4.01;84.51;101927.89;131454;1254;107384;-75
2023/02/15 00:11:06;;;;;;;36.60;22.70;;;;;;;4.04;84.73;101925.27;131335;1271;107225;-75
2023/02/15 00:14:13;;;;;;;27.30;17.50;;;;;;;4.04;84.54;101921.06;131521;1248;107459;-73
2023/02/15 00:17:19;;;;;;;29.30;17.90;;;;;;;3.94;84.36;101913.75;131578;1261;106385;-76
2023/02/15 00:20:24;;;;;;;28.40;18.40;;;;;;;3.85;84.55;101916.80;131530;1248;107494;-72
2023/02/15 00:23:30;;;;;;;33.80;20.80;;;;;;;3.78;84.97;101914.49;131516;1254;107322;-76
2023/02/15 00:26:36;;;;;;;29.40;17.30;;;;;;;3.76;84.91;101911.60;131560;1261;107508;-74
2023/02/15 00:29:42;;;;;;;27.20;17.20;;;;;;;3.72;84.90;101907.70;131606;1250;107534;-75
2023/02/15 00:32:49;;;;;;;29.60;18.70;;;;;;;3.66;85.01;101903.23;131535;1257;107519;-75
2023/02/15 00:35:59;;;;;;;32.70;18.50;;;;;;;3.62;85.21;101903.06;131557;1257;107534;-75
2023/02/15 00:39:05;;;;;;;31.70;18.80;;;;;;;3.57;85.23;101904.84;131550;1251;105911;-74
2023/02/15 00:42:11;;;;;;;28.20;18.40;;;;;;;3.54;85.24;101894.93;131552;1254;107376;-75
2023/02/15 00:45:16;;;;;;;31.20;18.50;;;;;;;3.56;85.47;101890.66;131282;1254;107320;-75
2023/02/15 00:48:22;;;;;;;30.30;17.30;;;;;;;3.51;85.54;101886.60;131505;1251;107349;-75
2023/02/15 00:51:28;;;;;;;27.30;16.90;;;;;;;3.50;85.40;101888.27;131465;1260;107493;-75
2023/02/15 00:54:34;;;;;;;29.20;15.80;;;;;;;3.50;85.50;101886.48;131544;1252;108773;-76
2023/02/15 00:57:40;;;;;;;26.90;17.10;;;;;;;3.56;85.32;101883.96;131522;1247;107219;-74
2023/02/15 01:00:47;;;;;;;31.50;17.40;;;;;;;3.64;85.50;101883.63;131530;1248;108643;-75
2023/02/15 01:03:52;;;;;;;29.40;18.30;;;;;;;3.67;85.20;101878.71;131533;1248;107464;-76
2023/02/15 01:06:58;;;;;;;31.70;18.90;;;;;;;3.67;85.20;101875.92;131555;1251;107516;-75
2023/02/15 01:10:04;;;;;;;29.90;18.70;;;;;;;3.66;85.24;101878.61;131537;1251;107539;-76
2023/02/15 01:13:11;;;;;;;29.50;18.40;;;;;;;3.63;85.22;101875.39;131353;1255;107520;-75
2023/02/15 01:16:17;;;;;;;28.50;16.90;;;;;;;3.59;85.21;101875.02;131539;1251;107325;-75
2023/02/15 01:19:23;;;;;;;28.70;17.30;;;;;;;3.58;85.15;101872.06;131557;1252;108465;-75
2023/02/15 01:22:28;;;;;;;25.20;15.40;;;;;;;3.64;85.05;101876.05;131501;1254;107515;-75
2023/02/15 01:25:36;;;;;;;29.60;17.30;;;;;;;3.70;85.31;101879.08;131520;1250;107869;-75
2023/02/15 01:28:42;;;;;;;30.40;17.80;;;;;;;3.77;84.86;101873.34;131549;1254;107349;-74
2023/02/15 01:31:47;;;;;;;28.10;17.50;;;;;;;3.80;85.11;101871.08;131558;1250;107198;-75
2023/02/15 01:34:53;;;;;;;31.70;18.60;;;;;;;3.86;85.14;101867.45;131523;1250;107404;-75
2023/02/15 01:37:59;;;;;;;36.40;20.10;;;;;;;3.89;85.01;101862.59;131474;1250;108639;-75
2023/02/15 01:41:27;;;;;;;34.00;19.90;;;;;;;3.82;84.75;101858.67;131160;1248;108594;-75
2023/02/15 01:44:52;;;;;;;28.30;17.10;;;;;;;3.73;85.23;101856.43;131098;1263;106522;-75
2023/02/15 01:48:02;;;;;;;35.10;18.70;;;;;;;3.74;85.14;101857.62;131108;1254;107537;-76
2023/02/15 01:51:09;;;;;;;30.20;17.90;;;;;;;3.73;85.19;101856.08;131191;1261;107566;-75
2023/02/15 01:54:24;;;;;;;38.40;20.30;;;;;;;3.78;85.30;101855.34;131230;1253;107453;-76
2023/02/15 01:57:30;;;;;;;35.50;20.60;;;;;;;3.79;85.12;101853.55;131119;1254;107517;-75
2023/02/15 02:00:36;;;;;;;34.60;20.80;;;;;;;3.83;85.31;101847.54;131127;1253;107577;-75
2023/02/15 02:03:50;;;;;;;33.80;20.20;;;;;;;3.93;85.22;101847.62;131065;1261;107524;-76
2023/02/15 02:06:57;;;;;;;33.20;20.00;;;;;;;3.97;84.96;101845.33;131213;1262;108656;-75
2023/02/15 02:10:05;;;;;;;34.40;20.20;;;;;;;3.99;85.05;101845.23;131230;1253;108602;-75
2023/02/15 02:13:12;;;;;;;30.90;17.60;;;;;;;4.01;84.82;101843.36;131244;1253;107420;-75
2023/02/15 02:16:24;;;;;;;33.50;18.30;;;;;;;3.96;84.75;101841.84;131250;1253;107515;-75
2023/02/15 02:20:08;;;;;;;28.70;17.20;;;;;;;4.01;84.90;101839.50;131208;1258;108464;-75
2023/02/15 02:23:25;;;;;;;31.70;18.70;;;;;;;4.11;85.09;101837.42;131266;1253;107522;-76
2023/02/15 02:26:57;;;;;;;31.10;19.20;;;;;;;4.20;84.88;101838.23;131203;1254;107463;-75
2023/02/15 02:30:36;;;;;;;30.30;19.20;;;;;;;4.25;84.91;101838.53;131145;1248;107726;-74
2023/02/15 02:33:58;;;;;;;31.70;19.10;;;;;;;4.29;84.49;101836.23;131208;1263;107228;-75
2023/02/15 02:37:13;;;;;;;32.80;19.50;;;;;;;4.31;84.79;101831.16;131406;1271;107245;-75
2023/02/15 02:40:26;;;;;;;29.10;18.50;;;;;;;4.32;84.65;101826.92;131442;1258;107208;-76
2023/02/15 02:43:39;;;;;;;31.20;18.50;;;;;;;4.31;84.56;101821.86;131427;1254;107390;-76
2023/02/15 02:46:51;;;;;;;32.70;18.50;;;;;;;4.31;84.74;101818.14;131201;1258;107524;-76
2023/02/15 02:49:59;;;;;;;;;;;;;;;4.35;84.73;101822.19;131248;1254;107564;-75
2023/02/15 02:53:05;;;;;;;30.10;17.20;;;;;;;4.43;84.62;101824.31;131227;1248;107356;-76
2023/02/15 02:56:20;;;;;;;33.70;18.90;;;;;;;4.45;84.49;101820.70;131402;1252;107326;-76
2023/02/15 02:59:31;;;;;;;34.70;20.40;;;;;;;4.46;84.24;101820.95;131418;1261;107505;-76
2023/02/15 03:02:41;;;;;;;32.80;20.40;;;;;;;4.48;84.39;101815.59;131349;1248;106622;-75
2023/02/15 03:05:50;;;;;;;33.70;20.20;;;;;;;4.47;84.51;101815.80;131169;1254;107356;-77
2023/02/15 03:09:02;;;;;;;33.40;20.10;;;;;;;4.46;84.57;101818.84;131145;1254;107587;-76
2023/02/15 03:12:09;;;;;;;32.80;18.70;;;;;;;4.43;84.47;101816.36;131537;1248;108651;-75
2023/02/15 03:15:20;;;;;;;34.40;19.10;;;;;;;4.41;84.40;101816.27;131242;1254;107464;-75
2023/02/15 03:18:31;;;;;;;30.60;18.60;;;;;;;4.40;84.36;101812.64;131270;1254;107479;-75
2023/02/15 03:21:49;;;;;;;34.90;19.00;;;;;;;4.39;84.54;101815.13;131508;1260;106571;-75
2023/02/15 03:25:00;;;;;;;29.20;17.60;;;;;;;4.41;84.39;101810.13;131605;1250;107372;-73
2023/02/15 03:28:11;;;;;;;34.80;19.90;;;;;;;4.45;84.11;101809.93;131538;1250;107560;-75
2023/02/15 03:31:19;;;;;;;33.00;20.40;;;;;;;4.45;84.33;101809.71;131335;1253;107497;-75
2023/02/15 03:34:25;;;;;;;35.70;21.10;;;;;;;4.50;84.37;101808.05;131520;1260;106782;-75
2023/02/15 03:37:37;;;;;;;33.10;20.60;;;;;;;4.53;84.24;101805.48;131553;1251;107227;-75
2023/02/15 03:44:17;;;;;;;31.50;19.30;;;;;;;4.52;84.21;101812.04;131404;1251;108717;-75
2023/02/15 03:47:28;;;;;;;31.60;20.40;;;;;;;4.49;84.31;101808.98;131322;1253;107245;-76
2023/02/15 03:54:02;;;;;;;31.40;18.60;;;;;;;4.44;84.29;101809.09;131265;1251;107496;-75
2023/02/15 04:04:11;;;;;;;38.60;22.10;;;;;;;4.55;84.06;101814.54;131366;1251;107405;-75
2023/02/15 04:07:17;;;;;;;63.90;32.60;;;;;;;4.59;84.07;101811.88;131511;1251;107189;-77
2023/02/15 04:13:45;;;;;;;33.20;20.10;;;;;;;4.59;84.09;101800.61;131538;1251;107511;-75
2023/02/15 04:16:51;;;;;;;32.40;19.20;;;;;;;4.53;83.76;101802.62;131534;1253;107231;-76
2023/02/15 04:26:43;;;;;;;30.70;18.30;;;;;;;4.43;83.88;101802.27;131510;1250;106766;-76
2023/02/15 04:29:49;;;;;;;32.10;19.00;;;;;;;4.39;84.05;101799.13;131488;1251;108693;-76
2023/02/15 04:32:56;;;;;;;32.20;17.30;;;;;;;4.38;84.05;101797.39;131569;1248;107324;-75
2023/02/15 04:36:02;;;;;;;29.90;19.10;;;;;;;4.42;84.22;101801.27;131555;1248;107270;-75
2023/02/15 04:39:08;;;;;;;34.90;20.40;;;;;;;4.48;84.21;101801.81;131495;1248;106548;-74
2023/02/15 04:42:14;;;;;;;31.70;19.40;;;;;;;4.51;84.17;101797.28;131462;1251;107367;-75
2023/02/15 04:45:19;;;;;;;43.00;23.30;;;;;;;4.51;84.01;101797.42;131443;1250;107491;-76
2023/02/15 04:48:25;;;;;;;61.10;31.30;;;;;;;4.51;83.87;101795.55;131390;1254;107734;-77
2023/02/15 04:51:31;;;;;;;232.80;89.80;;;;;;;4.51;84.01;101795.68;131474;1261;107511;-76
2023/02/15 04:54:37;;;;;;;68.30;33.70;;;;;;;4.50;83.68;101794.14;131446;1251;107641;-75
2023/02/15 04:57:43;;;;;;;44.00;24.90;;;;;;;4.48;83.81;101794.08;131475;1247;107657;-77
2023/02/15 05:00:49;;;;;;;36.90;19.70;;;;;;;4.47;84.09;101797.14;131429;1248;107507;-75
2023/02/15 05:03:54;;;;;;;32.70;18.60;;;;;;;4.44;84.01;101798.86;131555;1257;107206;-76
2023/02/15 05:07:00;;;;;;;29.70;17.60;;;;;;;4.45;84.14;101794.96;131435;1257;107243;-76
2023/02/15 05:10:07;;;;;;;37.60;20.00;;;;;;;4.47;83.81;101791.67;131469;1250;108449;-76
2023/02/15 05:13:12;;;;;;;59.40;26.50;;;;;;;4.41;83.51;101791.96;131509;1251;107927;-75
2023/02/15 05:16:19;;;;;;;51.00;26.90;;;;;;;4.46;84.01;101791.38;131471;1248;107520;-76
2023/02/15 05:19:26;;;;;;;43.00;24.10;;;;;;;4.49;84.04;101798.08;131504;1248;108569;-77
2023/02/15 05:22:32;;;;;;;40.90;22.70;;;;;;;4.50;83.76;101795.38;131230;1252;107606;-77
2023/02/15 05:29:01;;;;;;;47.20;24.30;;;;;;;4.48;83.76;101800.06;131383;1254;107258;-75
2023/02/15 05:32:06;;;;;;;33.60;18.70;;;;;;;4.47;83.95;101800.13;131388;1253;107519;-76
2023/02/15 05:35:16;;;;;;;34.20;18.00;;;;;;;4.45;83.86;101801.79;131313;1254;107524;-76
2023/02/15 05:38:21;;;;;;;186.80;53.00;;;;;;;4.44;83.68;101800.44;131373;1253;107664;-76
2023/02/15 05:41:27;;;;;;;206.20;63.30;;;;;;;4.48;83.91;101801.48;131544;1250;107425;-76
2023/02/15 05:44:33;;;;;;;83.10;31.80;;;;;;;4.53;83.72;101806.16;131510;1250;107505;-76
2023/02/15 05:47:38;;;;;;;46.80;23.10;;;;;;;4.56;83.74;101802.52;131573;1248;107630;-74
2023/02/15 05:50:44;;;;;;;37.50;22.20;;;;;;;4.56;83.74;101800.58;131551;1248;107323;-73
2023/02/15 05:53:49;;;;;;;42.40;21.80;;;;;;;4.55;83.82;101805.91;131412;1252;107297;-75
2023/02/15 05:56:55;;;;;;;49.90;28.50;;;;;;;4.53;83.64;101804.58;131438;1254;107667;-76
2023/02/15 06:00:05;;;;;;;48.90;26.30;;;;;;;4.52;83.67;101805.33;131412;1267;107220;-78
2023/02/15 06:03:21;;;;;;;35.80;19.60;;;;;;;4.48;83.72;101806.75;131418;1251;107581;-75
2023/02/15 06:06:26;;;;;;;118.40;61.50;;;;;;;4.46;83.55;101808.45;131407;1250;107415;-76
2023/02/15 06:09:32;;;;;;;75.60;39.20;;;;;;;4.46;83.64;101809.34;131447;1248;107236;-77
2023/02/15 06:12:37;;;;;;;63.40;35.30;;;;;;;4.51;83.90;101808.75;131505;1250;107532;-77
2023/02/15 06:15:43;;;;;;;41.60;24.70;;;;;;;4.57;83.58;101804.75;131503;1260;107354;-75
2023/02/15 06:18:48;;;;;;;38.90;22.70;;;;;;;4.60;83.65;101799.83;131456;1250;107056;-76
2023/02/15 06:21:54;;;;;;;40.90;21.70;;;;;;;4.62;83.83;101802.91;131479;1247;107366;-76
2023/02/15 06:24:59;;;;;;;32.90;19.90;;;;;;;4.62;83.59;101797.08;131497;1251;107478;-76
2023/02/15 06:28:05;;;;;;;35.70;21.10;;;;;;;4.60;83.66;101800.55;131492;1254;107206;-76
2023/02/15 06:31:11;;;;;;;50.90;29.80;;;;;;;4.56;83.66;101799.69;131531;1250;107348;-76
2023/02/15 06:34:17;;;;;;;34.40;20.00;;;;;;;4.57;83.84;101807.23;131508;1250;107241;-76
2023/02/15 06:37:22;;;;;;;41.30;27.30;;;;;;;4.57;83.89;101809.84;131483;1260;106790;-76
2023/02/15 06:40:28;;;;;;;28.80;17.90;;;;;;;4.61;83.70;101807.54;131541;1250;107147;-77
2023/02/15 06:43:34;;;;;;;32.60;19.40;;;;;;;4.67;83.72;101801.76;131469;1251;105521;-76
2023/02/15 06:46:40;;;;;;;33.10;20.00;;;;;;;4.74;83.88;101805.70;131526;1248;107250;-76
2023/02/15 06:49:46;;;;;;;31.10;19.40;;;;;;;4.78;83.60;101808.09;131542;1247;107323;-76
2023/02/15 06:52:55;;;;;;;32.40;20.10;;;;;;;4.79;83.40;101804.54;131494;1248;107510;-77
2023/02/15 06:56:06;;;;;;;33.70;21.00;;;;;;;4.76;83.65;101805.38;131483;1247;108591;-76
2023/02/15 06:59:12;;;;;;;35.70;21.90;;;;;;;4.77;83.78;101801.80;131538;1250;105413;-77
2023/02/15 07:02:17;;;;;;;30.90;20.20;;;;;;;4.80;83.53;101799.88;131500;1248;106660;-76
2023/02/15 07:05:23;;;;;;;29.60;18.40;;;;;;;4.81;83.60;101800.18;131478;1250;107287;-76
2023/02/15 07:08:30;;;;;;;27.20;16.80;;;;;;;4.83;83.56;101796.75;131506;1250;107510;-76
2023/02/15 07:14:59;;;;;;;39.10;23.40;;;;;;;4.91;83.23;101801.27;131449;1250;107607;-76
2023/02/15 07:18:05;;;;;;;38.00;23.30;;;;;;;4.95;83.34;101800.19;131573;1260;107589;-75
2023/02/15 07:21:11;;;;;;;43.40;24.50;;;;;;;4.93;82.80;101792.88;131498;1248;107220;-76
2023/02/15 07:24:17;;;;;;;105.70;46.10;;;;;;;4.94;83.05;101795.32;131498;1260;107226;-76
2023/02/15 07:27:23;;;;;;;77.80;39.30;;;;;;;5.00;83.25;101796.06;131362;1248;107446;-77
2023/02/15 07:30:29;;;;;;;45.50;25.00;;;;;;;5.04;83.04;101793.38;131266;1254;107424;-74
2023/02/15 07:33:35;;;;;;;93.30;49.40;;;;;;;5.06;83.14;101794.50;131463;1253;107342;-74
2023/02/15 07:36:40;;;;;;;98.80;53.80;;;;;;;5.09;83.05;101795.56;131308;1248;107437;-77
2023/02/15 07:39:46;;;;;;;47.30;27.50;;;;;;;5.10;83.18;101796.73;131419;1250;106474;-76
2023/02/15 07:42:54;;;;;;;37.60;19.60;;;;;;;5.13;82.94;101792.05;131498;1250;107541;-76
2023/02/15 07:46:04;;;;;;;39.60;22.70;;;;;;;5.12;82.62;101793.50;131534;1251;107658;-74
2023/02/15 07:49:09;;;;;;;67.30;36.00;;;;;;;5.19;82.79;101787.30;131599;1250;107489;-74
2023/02/15 07:52:15;;;;;;;79.80;40.90;;;;;;;5.28;82.85;101785.04;131494;1248;107402;-77
2023/02/15 07:55:21;;;;;;;40.40;24.30;;;;;;;5.37;82.76;101776.48;131465;1250;107856;-76
2023/02/15 07:58:50;;;;;;;32.40;21.50;;;;;;;5.38;82.56;101774.80;131507;1270;107420;-76
2023/02/15 08:01:53;;;;;;;79.10;38.10;;;;;;;5.35;82.40;101775.16;131574;1248;107842;-74
2023/02/15 08:04:59;;;;;;;142.10;58.50;;;;;;;5.36;82.35;101774.04;131542;1249;107373;-75
2023/02/15 08:08:05;;;;;;;70.70;34.30;;;;;;;5.38;82.58;101766.71;131555;1248;108645;-76
2023/02/15 08:11:26;;;;;;;86.60;39.10;;;;;;;5.40;82.23;101760.59;131591;1250;107389;-77
2023/02/15 08:14:32;;;;;;;115.00;48.50;;;;;;;5.43;82.50;101756.17;131361;1261;109261;-76
2023/02/15 08:17:40;;;;;;;100.40;39.40;;;;;;;5.42;82.19;101749.54;131350;1252;107232;-74
2023/02/15 08:20:51;;;;;;;186.10;62.60;;;;;;;5.44;82.15;101744.89;131276;1253;108593;-77
2023/02/15 08:23:57;;;;;;;41.20;22.80;;;;;;;5.46;82.08;101743.11;131559;1248;107342;-76
2023/02/15 08:27:03;;;;;;;32.20;20.40;;;;;;;5.55;82.11;101743.55;131459;1253;108108;-76
2023/02/15 08:30:10;;;;;;;32.10;20.70;;;;;;;5.63;82.02;101744.34;131365;1254;107517;-76
2023/02/15 08:33:17;;;;;;;34.60;21.90;;;;;;;5.70;81.77;101742.92;131555;1250;107526;-76
2023/02/15 08:36:27;;;;;;;33.20;21.90;;;;;;;5.71;81.56;101742.48;131493;1247;108522;-74
2023/02/15 08:39:33;;;;;;;286.80;82.50;;;;;;;5.69;81.50;101737.31;131547;1248;108487;-74
2023/02/15 08:42:38;;;;;;;120.80;42.50;;;;;;;5.69;81.65;101735.21;131534;1247;107353;-74
2023/02/15 08:45:44;;;;;;;142.90;51.50;;;;;;;5.72;81.74;101729.38;131416;1253;108130;-74
2023/02/15 08:48:49;;;;;;;54.40;28.30;;;;;;;5.74;81.59;101726.07;131323;1252;107615;-77
2023/02/15 08:51:55;;;;;;;39.20;23.80;;;;;;;5.72;81.68;101722.33;131387;1248;107334;-76
2023/02/15 08:55:00;;;;;;;33.80;22.20;;;;;;;5.70;81.42;101719.96;131317;1248;106504;-77
2023/02/15 08:58:06;;;;;;;29.90;19.40;;;;;;;5.69;81.52;101718.44;131293;1252;106487;-76
2023/02/15 09:01:13;;;;;;;30.90;18.80;;;;;;;5.71;81.66;101717.42;131418;1253;107505;-76
2023/02/15 09:04:19;;;;;;;32.80;20.60;;;;;;;5.78;81.19;101718.12;131369;1253;107479;-76
2023/02/15 09:07:24;;;;;;;615.70;134.40;;;;;;;5.82;81.37;101716.64;131292;1252;107467;-77
2023/02/15 09:10:30;;;;;;;96.20;35.30;;;;;;;5.89;81.52;101712.00;131445;1248;107277;-78
2023/02/15 09:13:36;;;;;;;50.00;25.50;;;;;;;5.96;81.43;101713.23;131503;1250;105817;-78
2023/02/15 09:16:44;;;;;;;134.60;49.20;;;;;;;5.98;81.08;101710.13;131583;1250;106480;-77
2023/02/15 09:19:50;;;;;;;226.40;76.80;;;;;;;5.97;80.92;101704.15;131524;1250;109279;-76
2023/02/15 09:22:55;;;;;;;202.40;70.80;;;;;;;5.95;81.25;101707.44;131465;1250;107634;-77
2023/02/15 09:26:04;;;;;;;97.50;42.10;;;;;;;5.93;81.04;101702.80;131435;1248;107533;-77
2023/02/15 09:29:11;;;;;;;49.20;28.60;;;;;;;5.89;81.00;101701.91;131512;1250;107574;-75
2023/02/15 09:32:17;;;;;;;43.80;27.30;;;;;;;5.88;80.98;101701.83;131556;1248;108470;-78
2023/02/15 09:35:23;;;;;;;39.40;24.40;;;;;;;5.85;80.99;101700.39;131462;1261;107656;-76
2023/02/15 09:38:29;;;;;;;52.90;30.60;;;;;;;5.83;80.93;101700.52;131517;1250;107383;-76
2023/02/15 09:41:48;;;;;;;39.50;24.40;;;;;;;5.80;80.90;101695.36;131474;1248;107527;-75
2023/02/15 09:45:14;;;;;;;38.70;23.70;;;;;;;5.83;80.97;101692.39;131546;1248;108824;-76
2023/02/15 09:48:41;;;;;;;37.00;23.40;;;;;;;5.91;80.72;101691.77;131500;1248;107223;-75
2023/02/15 09:52:18;;;;;;;42.90;26.60;;;;;;;5.97;80.79;101687.72;131545;1248;108327;-78
2023/02/15 09:55:40;;;;;;;45.00;27.50;;;;;;;6.02;80.70;101681.64;131483;1250;107371;-75
2023/02/15 09:58:54;;;;;;;59.60;31.30;;;;;;;6.02;80.48;101669.60;131553;1251;107605;-75
2023/02/15 10:02:12;;;;;;;68.90;36.30;;;;;;;6.02;80.42;101670.35;131502;1250;107203;-77
2023/02/15 10:05:28;;;;;;;49.80;31.90;;;;;;;5.98;80.30;101671.23;131529;1259;107345;-77
2023/02/15 10:08:55;;;;;;;44.30;28.90;;;;;;;5.99;80.34;101673.52;131485;1251;107230;-78
2023/02/15 10:12:15;;;;;;;47.80;28.90;;;;;;;5.99;80.06;101672.61;131550;1251;107525;-77
2023/02/15 10:15:32;;;;;;;44.80;28.20;;;;;;;5.97;80.18;101672.39;131501;1260;107294;-77
2023/02/15 10:18:54;;;;;;;46.80;28.10;;;;;;;5.95;80.18;101667.55;131571;1270;107224;-77
2023/02/15 10:22:18;;;;;;;64.20;30.20;;;;;;;5.92;80.24;101669.48;131526;1248;107338;-76
2023/02/15 10:25:33;;;;;;;55.00;29.10;;;;;;;5.93;80.40;101670.48;131615;1250;107220;-76
2023/02/15 10:28:45;;;;;;;91.10;40.30;;;;;;;5.96;80.42;101665.02;131548;1250;108599;-75
2023/02/15 10:31:56;;;;;;;77.90;38.60;;;;;;;6.01;80.17;101661.22;131500;1250;107452;-77
2023/02/15 10:35:11;;;;;;;58.80;32.60;;;;;;;6.07;80.24;101660.64;131579;1248;107332;-78
2023/02/15 10:38:30;;;;;;;56.20;33.40;;;;;;;6.13;79.98;101662.81;131523;1250;107335;-75
2023/02/15 10:41:45;;;;;;;56.80;33.80;;;;;;;6.14;80.12;101658.70;131493;1250;107438;-77
2023/02/15 10:45:06;;;;;;;89.50;45.90;;;;;;;6.16;80.08;101653.27;131532;1264;107370;-77
2023/02/15 10:48:30;;;;;;;123.10;54.60;;;;;;;6.18;79.88;101648.55;131541;1248;107176;-74
2023/02/15 10:51:49;;;;;;;61.00;33.00;;;;;;;6.14;79.80;101640.31;131532;1254;107243;-76
2023/02/15 10:55:04;;;;;;;104.60;49.20;;;;;;;6.17;79.96;101638.33;131633;1250;107511;-75
2023/02/15 10:58:25;;;;;;;106.10;48.80;;;;;;;6.18;79.76;101638.13;131557;1250;107501;-76
2023/02/15 11:01:37;;;;;;;72.70;36.90;;;;;;;6.15;79.60;101638.86;131506;1248;108038;-77
2023/02/15 11:04:59;;;;;;;45.70;25.50;;;;;;;6.16;79.90;101634.70;131210;1262;106577;-78
2023/02/15 11:08:10;;;;;;;102.20;43.80;;;;;;;6.17;79.56;101633.05;131241;1252;107236;-77
2023/02/15 11:11:25;;;;;;;74.90;37.20;;;;;;;6.23;79.72;101633.23;131520;1250;106550;-77
2023/02/15 11:14:39;;;;;;;43.90;27.00;;;;;;;6.31;79.54;101631.34;131490;1248;107492;-78
2023/02/15 11:17:50;;;;;;;65.60;32.10;;;;;;;6.37;79.47;101628.00;131662;1250;106547;-75
2023/02/15 11:21:02;;;;;;;122.60;45.40;;;;;;;6.41;79.22;101625.42;131430;1251;107272;-77
2023/02/15 11:24:13;;;;;;;44.40;25.50;;;;;;;6.45;79.49;101626.75;131515;1251;106643;-75
2023/02/15 11:27:25;;;;;;;43.20;25.40;;;;;;;6.46;78.81;101621.23;131498;1250;107488;-77
2023/02/15 11:30:43;;;;;;;40.80;25.60;;;;;;;6.44;79.16;101617.33;131556;1248;107200;-77
2023/02/15 11:33:53;;;;;;;34.60;23.20;;;;;;;6.43;79.07;101617.35;131540;1248;107215;-77
2023/02/15 11:37:05;;;;;;;36.90;24.80;;;;;;;6.39;79.08;101614.77;131545;1248;107244;-77
2023/02/15 11:40:24;;;;;;;36.50;24.00;;;;;;;6.36;78.84;101610.73;131489;1250;107500;-76
2023/02/15 11:43:35;;;;;;;36.80;23.70;;;;;;;6.31;78.93;101607.34;131586;1250;107190;-77
2023/02/15 11:46:41;;;;;;;33.40;22.60;;;;;;;6.22;78.97;101606.95;131519;1248;107222;-77
2023/02/15 11:49:47;;;;;;;35.90;21.30;;;;;;;6.15;78.85;101608.27;131571;1250;107487;-77
2023/02/15 11:52:58;;;;;;;29.80;17.70;;;;;;;6.07;78.73;101606.42;131567;1251;107392;-76
2023/02/15 11:56:05;;;;;;;35.80;19.30;;;;;;;6.05;78.74;101602.33;131512;1248;107417;-76
2023/02/15 11:59:28;;;;;;;36.40;21.20;;;;;;;6.04;78.91;101593.87;131491;1248;107220;-76
2023/02/15 12:02:37;;;;;;;44.20;23.60;;;;;;;6.09;78.93;101586.85;131577;1251;107258;-75
2023/02/15 12:05:49;;;;;;;61.70;27.40;;;;;;;6.14;79.01;101579.67;131464;1257;108625;-77
2023/02/15 12:09:07;;;;;;;35.70;23.10;;;;;;;6.18;78.97;101572.75;131444;1248;107373;-77
2023/02/15 12:12:28;;;;;;;32.40;21.10;;;;;;;6.20;78.78;101566.28;131548;1248;106546;-77
2023/02/15 12:15:35;;;;;;;34.80;22.10;;;;;;;6.18;78.54;101562.30;131492;1250;107184;-77
2023/02/15 12:18:44;;;;;;;37.40;23.00;;;;;;;6.16;78.77;101557.66;131569;1270;108508;-78
2023/02/15 12:21:53;;;;;;;32.50;21.60;;;;;;;6.18;78.85;101549.60;131602;1270;107314;-78
2023/02/15 12:25:02;;;;;;;38.10;22.80;;;;;;;6.18;78.43;101548.20;131450;1250;107489;-77
2023/02/15 12:28:27;;;;;;;33.40;22.90;;;;;;;6.14;78.71;101550.39;131574;1250;107698;-77
2023/02/15 12:31:39;;;;;;;33.90;21.90;;;;;;;6.13;78.80;101550.59;131640;1247;107396;-77
2023/02/15 12:34:46;;;;;;;28.00;17.90;;;;;;;6.15;78.91;101551.89;131542;1250;108715;-77
2023/02/15 12:37:57;;;;;;;25.80;17.00;;;;;;;6.19;78.53;101550.43;131428;1247;108336;-77
2023/02/15 12:41:06;;;;;;;61.80;31.10;;;;;;;6.22;78.53;101554.11;131478;1250;107526;-76
2023/02/15 12:44:23;;;;;;;37.90;22.70;;;;;;;6.29;78.78;101550.14;131502;1248;107470;-77
2023/02/15 12:47:30;;;;;;;42.90;24.80;;;;;;;6.34;78.35;101544.96;131605;1251;107233;-76
2023/02/15 12:50:36;;;;;;;33.00;20.10;;;;;;;6.33;78.29;101541.27;131499;1250;107616;-76
2023/02/15 12:53:42;;;;;;;28.70;18.70;;;;;;;6.34;78.22;101537.52;131544;1255;107195;-79
2023/02/15 12:56:47;;;;;;;35.40;21.80;;;;;;;6.33;78.06;101532.60;131546;1248;107346;-76
2023/02/15 12:59:56;;;;;;;36.20;20.20;;;;;;;6.30;78.02;101527.66;131468;1250;109239;-77
2023/02/15 13:03:07;;;;;;;28.60;18.20;;;;;;;6.27;78.15;101525.23;131410;1248;107456;-76
2023/02/15 13:06:13;;;;;;;29.00;19.60;;;;;;;6.23;78.13;101519.41;131507;1248;107550;-77
2023/02/15 13:09:27;;;;;;;24.40;17.30;;;;;;;6.19;78.18;101516.64;131470;1248;108648;-77
2023/02/15 13:12:34;;;;;;;29.00;18.80;;;;;;;6.18;78.08;101517.77;131411;1253;108673;-77
2023/02/15 13:15:42;;;;;;;25.40;16.40;;;;;;;6.16;77.96;101517.59;131551;1250;107841;-76
2023/02/15 13:18:51;;;;;;;27.00;17.70;;;;;;;6.04;77.74;101518.78;131443;1247;107441;-78
2023/02/15 13:21:58;;;;;;;26.60;15.30;;;;;;;5.97;78.15;101513.07;131449;1253;107515;-77
2023/02/15 13:25:12;;;;;;;23.40;14.60;;;;;;;5.95;78.05;101510.31;131269;1255;107366;-77
2023/02/15 13:28:21;;;;;;;27.20;16.90;;;;;;;5.94;78.04;101507.23;131246;1253;107438;-77
2023/02/15 13:31:33;;;;;;;26.80;16.50;;;;;;;5.95;78.07;101505.75;131428;1252;107614;-77
2023/02/15 13:34:40;;;;;;;25.50;16.00;;;;;;;5.95;77.65;101506.45;131457;1253;107395;-77
2023/02/15 13:38:02;;;;;;;27.10;16.30;;;;;;;5.93;77.75;101499.69;131472;1253;107859;-76
2023/02/15 13:41:14;;;;;;;27.40;16.40;;;;;;;5.89;77.85;101500.39;131604;1266;107321;-75
2023/02/15 13:44:48;;;;;;;30.30;17.60;;;;;;;5.86;77.87;101497.98;131527;1250;107656;-75
2023/02/15 13:48:00;;;;;;;29.00;16.30;;;;;;;5.84;77.70;101492.95;131482;1248;107587;-76
2023/02/15 13:51:14;;;;;;;26.70;15.30;;;;;;;5.82;77.69;101490.77;131456;1250;106924;-76
2023/02/15 13:54:37;;;;;;;27.10;15.50;;;;;;;5.80;77.69;101490.37;131446;1247;107217;-77
2023/02/15 13:58:06;;;;;;;30.90;19.50;;;;;;;5.72;77.65;101492.08;131437;1250;107523;-77
2023/02/15 14:01:16;;;;;;;29.90;18.40;;;;;;;5.65;77.93;101490.91;131338;1248;123505;-78
2023/02/15 14:04:54;;;;;;;39.30;21.20;;;;;;;5.58;77.80;101487.47;131258;1253;107402;-78
2023/02/15 14:08:09;;;;;;;37.40;19.50;;;;;;;5.52;78.15;101491.36;131261;1253;107427;-77
2023/02/15 14:11:27;;;;;;;33.70;19.60;;;;;;;5.50;78.27;101490.55;131503;1250;107400;-77
2023/02/15 14:14:54;;;;;;;32.70;19.00;;;;;;;5.55;78.27;101487.81;131499;1250;108545;-77
2023/02/15 14:18:13;;;;;;;31.00;17.70;;;;;;;5.60;78.09;101491.76;131501;1250;107629;-77
2023/02/15 14:21:26;;;;;;;28.80;16.50;;;;;;;5.57;77.87;101487.84;131503;1248;107360;-77
2023/02/15 14:24:43;;;;;;;28.50;16.20;;;;;;;5.56;77.86;101486.48;131507;1248;107442;-77
2023/02/15 14:28:02;;;;;;;29.00;16.50;;;;;;;5.53;77.88;101483.14;131465;1248;107396;-77
2023/02/15 14:31:12;;;;;;;29.20;16.90;;;;;;;5.46;77.85;101483.56;131496;1261;107358;-77
2023/02/15 14:34:25;;;;;;;30.00;16.90;;;;;;;5.43;77.91;101483.00;131563;1250;107154;-77
2023/02/15 14:37:43;;;;;;;27.70;16.30;;;;;;;5.38;77.97;101478.73;131504;1250;107321;-77
2023/02/15 14:41:01;;;;;;;29.30;16.60;;;;;;;5.33;77.92;101473.23;131272;1248;108573;-77
2023/02/15 14:44:16;;;;;;;29.50;15.30;;;;;;;5.27;77.80;101470.02;131282;1254;106908;-77
2023/02/15 14:47:27;;;;;;;33.00;16.20;;;;;;;5.22;77.85;101469.09;131235;1253;107573;-77